TAF Text Data
IDs:
Format:
Raw Decoded Include METAR

Data at: 1219 UTC 23 Jun 2021

KAUG 231120Z 2312/2412 30007KT P6SM SKC
  FM231500 29011G17KT P6SM FEW250
  FM240000 22004KT P6SM SKC